Latest Weather Observations for Delamere

IDD60801

Issued at 10:51 pm CST Friday 15 November 2019 (issued every 10 minutes, with the page automatically refreshed every 10 minutes)

About weather observations | Map of weather stations | Latest weather observations for NT | Other Formats
Station Details ID: 014949 Name: DELAMERE WEAPONS RANGE Lat: -15.74 Lon: 131.92 Height: 221.0 m
Data from the previous 72 hours. | See also: Recent months at Delamere
Date/Time
CST
Temp
°C
App
Temp
°C
Dew
Point
°C
Rel
Hum
%
Delta-T
°C
Wind Press
QNH
hPa
Press
MSL
hPa
Rain since
9am
mm
Dir  Spd
km/h
Gust
km/h
Spd
kts
Gust
kts
15/10:30pm 32.5 27.5 -4.4 9 16.8 SE 13 17 7 9 1010.9 1009.1 0.0
15/10:00pm 33.2 28.1 -5.5 8 17.4 SE 13 20 7 11 1010.5 1008.7 0.0
15/09:30pm 33.1 28.5 -4.0 9 17.1 SSE 11 15 6 8 1010.3 1008.5 0.0
15/09:00pm 33.6 29.3 -5.2 8 17.6 SSE 9 13 5 7 1010.0 1008.2 0.0
15/08:30pm 34.6 30.0 -4.4 8 18.1 SE 11 15 6 8 1009.6 1007.8 0.0
15/08:00pm 35.2 30.6 -4.0 8 18.3 SSE 11 13 6 7 1009.2 1007.5 0.0
15/07:30pm 36.2 31.5 -5.0 7 19.1 SE 11 15 6 8 1008.8 1007.1 0.0
15/07:00pm 37.4 32.8 -4.2 7 19.7 SSE 11 13 6 7 1008.4 1006.7 0.0
15/06:30pm 38.8 32.9 -5.2 6 20.8 SSE 17 22 9 12 1008.0 1006.3 0.0
15/06:00pm 39.8 33.6 -4.5 6 21.3 SE 19 28 10 15 1007.6 1005.8 0.0
15/05:30pm 40.1 33.7 -6.7 5 21.8 ESE 19 30 10 16 1007.3 1005.5 0.0
15/05:00pm 40.4 34.0 -6.5 5 21.9 ESE 19 35 10 19 1007.1 1005.3 0.0
15/04:30pm 40.5 34.1 -6.4 5 22.0 SSE 19 30 10 16 1007.2 1005.4 0.0
15/04:00pm 40.3 33.7 -6.5 5 21.8 ESE 20 32 11 17 1007.4 1005.6 0.0
15/03:47pm 40.5 34.1 -6.4 5 21.9 SSE 19 52 10 28 1007.5 1005.7 0.0
15/03:30pm 41.0 34.1 -6.0 5 22.3 ESE 22 43 12 23 1007.6 1005.8 0.0
15/03:00pm 40.7 33.8 -6.3 5 22.1 ESE 22 41 12 22 1008.1 1006.4 0.0
15/02:30pm 39.9 33.9 -6.8 5 21.7 ESE 17 35 9 19 1008.4 1006.7 0.0
15/02:00pm 40.2 33.6 -6.6 5 21.8 SE 20 32 11 17 1008.8 1007.1 0.0
15/01:30pm 39.7 33.7 -6.9 5 21.6 ESE 17 26 9 14 1009.2 1007.5 0.0
15/01:00pm 39.1 32.6 -7.4 5 21.2 E 19 32 10 17 1009.9 1008.1 0.0
15/12:30pm 40.0 34.0 -6.7 5 21.7 SE 17 26 9 14 1010.5 1008.7 0.0
15/12:00pm 38.1 32.3 -8.1 5 20.7 E 15 28 8 15 1010.9 1009.1 0.0
15/11:30am 37.2 30.7 -6.3 6 19.9 E 20 30 11 16 1011.4 1009.6 0.0
15/11:00am 36.9 30.5 -4.5 7 19.5 ENE 20 33 11 18 1011.8 1010.0 0.0
15/10:30am 36.0 29.8 -3.4 8 18.7 E 20 32 11 17 1012.1 1010.4 0.0
15/10:00am 34.9 28.8 0.1 11 17.4 ENE 22 33 12 18 1012.2 1010.5 0.0
15/09:30am 34.6 28.4 2.2 13 16.7 E 24 35 13 19 1012.3 1010.6 0.0
15/09:00am 33.3 28.6 5.0 17 15.2 ENE 19 24 10 13 1012.3 1010.6 0.0
15/08:30am 31.8 28.8 7.5 22 13.4 ENE 13 19 7 10 1012.3 1010.6 0.0
15/08:00am 29.5 26.3 4.9 21 12.9 ENE 11 15 6 8 1012.2 1010.5 0.0
15/07:30am 27.2 24.1 3.7 22 11.9 ENE 9 13 5 7 1012.1 1010.4 0.0
15/07:00am 25.1 22.0 1.3 21 11.3 E 7 9 4 5 1011.6 1009.8 0.0
15/06:30am 24.1 20.8 0.4 21 11.0 E 7 9 4 5 1011.3 1009.5 0.0
15/06:00am 23.8 20.5 0.2 21 10.9 E 7 9 4 5 1010.8 1009.0 0.0
15/05:30am 24.9 21.2 -0.3 19 11.7 ENE 9 13 5 7 1010.5 1008.7 0.0
15/05:00am 25.5 21.6 -1.3 17 12.2 E 9 13 5 7 1010.1 1008.3 0.0
15/04:30am 24.8 20.7 -2.7 16 12.2 E 9 11 5 6 1010.1 1008.3 0.0
15/04:00am 25.0 21.3 -2.5 16 12.2 NE 7 9 4 5 1010.1 1008.3 0.0
15/03:30am 26.2 22.1 -3.4 14 13.1 E 9 13 5 7 1009.8 1008.0 0.0
15/03:00am 26.4 22.2 -4.2 13 13.3 E 9 11 5 6 1009.8 1008.0 0.0
15/02:30am 27.0 22.7 -4.8 12 13.8 E 9 11 5 6 1009.9 1008.1 0.0
15/02:00am 27.7 23.0 -5.4 11 14.3 E 11 13 6 7 1010.1 1008.3 0.0
15/01:30am 28.5 24.2 -4.8 11 14.6 ESE 9 13 5 7 1010.2 1008.4 0.0
15/01:00am 29.0 23.8 -5.7 10 15.0 E 13 20 7 11 1010.4 1008.6 0.0
15/12:30am 29.0 25.0 -5.7 10 15.1 ESE 7 9 4 5 1010.1 1008.3 0.0
15/12:00am 30.1 26.2 -4.8 10 15.5 ESE 7 11 4 6 1010.4 1008.6 0.0
 
Date/Time
CST
Temp
°C
App
Temp
°C
Dew
Point
°C
Rel
Hum
%
Delta-T
°C
Wind Press
QNH
hPa
Press
MSL
hPa
Rain since
9am
mm
Dir  Spd
km/h
Gust
km/h
Spd
kts
Gust
kts
14/11:30pm 31.2 26.5 -5.4 9 16.3 ESE 11 15 6 8 1010.5 1008.7 0.0
14/11:00pm 32.1 27.3 -6.3 8 16.9 ESE 11 13 6 7 1010.4 1008.6 0.0
14/10:30pm 32.1 27.8 -4.7 9 16.7 ESE 9 11 5 6 1010.3 1008.5 0.0
14/10:00pm 32.6 28.4 -4.3 9 16.9 SE 9 11 5 6 1009.9 1008.1 0.0
14/09:30pm 33.3 28.6 -5.4 8 17.5 ESE 11 13 6 7 1009.6 1007.8 0.0
14/09:00pm 33.2 29.4 -3.9 9 17.2 ESE 7 9 4 5 1009.4 1007.6 0.0
14/08:30pm 33.9 29.6 -4.9 8 17.8 SE 9 13 5 7 1009.0 1007.3 0.0
14/08:00pm 34.0 30.4 -3.3 9 17.5 ESE 6 7 3 4 1008.6 1006.9 0.0
14/07:30pm 35.8 31.8 -5.3 7 19.0 E 7 9 4 5 1008.2 1006.5 0.0
14/07:00pm 37.4 32.6 -6.2 6 20.0 E 11 19 6 10 1007.8 1006.1 0.0
14/06:30pm 38.4 32.9 -5.5 6 20.6 E 15 20 8 11 1007.5 1005.7 0.0
14/06:00pm 39.0 32.6 -5.1 6 20.9 E 20 30 11 16 1007.3 1005.5 0.0
14/05:30pm 39.6 33.2 -4.6 6 21.2 SE 20 30 11 16 1007.0 1005.2 0.0
14/05:00pm 39.9 33.8 -2.4 7 20.9 ESE 20 33 11 18 1007.1 1005.3 0.0
14/04:30pm 40.1 34.2 -2.2 7 21.1 ESE 19 32 10 17 1007.2 1005.4 0.0
14/04:00pm 40.8 35.0 0.1 8 21.0 ESE 20 28 11 15 1007.3 1005.5 0.0
14/03:30pm 39.9 34.2 -0.5 8 20.6 ENE 19 30 10 16 1007.9 1006.2 0.0
14/03:00pm 40.4 34.6 -0.2 8 20.9 SE 20 39 11 21 1008.1 1006.4 0.0
14/02:30pm 39.6 34.1 0.9 9 20.2 SE 19 30 10 16 1008.6 1006.9 0.0
14/02:00pm 40.2 35.9 1.3 9 20.4 ENE 13 30 7 16 1009.2 1007.5 0.0
14/01:30pm 39.0 34.2 0.4 9 19.9 E 15 26 8 14 1010.0 1008.2 0.0
14/01:00pm 38.3 33.3 1.3 10 19.2 ESE 17 32 9 17 1010.6 1008.8 0.0
14/12:30pm 38.2 33.6 3.8 12 18.6 ESE 17 30 9 16 1011.1 1009.3 0.0
14/12:00pm 36.9 32.9 5.0 14 17.4 ESE 15 26 8 14 1011.8 1010.0 0.0
14/11:30am 36.4 32.4 6.6 16 16.6 ENE 17 35 9 19 1012.5 1010.8 0.0
14/11:00am 35.7 32.7 9.3 20 15.3 NE 15 32 8 17 1012.9 1011.2 0.0
14/10:30am 34.4 32.6 13.3 28 12.9 E 15 22 8 12 1013.2 1011.5 0.0
14/10:00am 32.9 32.1 15.0 34 11.2 ESE 13 19 7 10 1013.6 1011.9 0.0
14/09:30am 33.0 32.7 15.5 35 11.0 ENE 11 20 6 11 1013.7 1012.0 0.0
14/09:00am 30.5 29.9 14.6 38 9.8 NE 11 17 6 9 1013.9 1012.2 0.0
14/08:30am 29.3 28.5 13.9 39 9.3 NE 11 15 6 8 1014.0 1012.3 0.0
14/08:00am 28.5 26.8 11.1 34 10.0 E 11 17 6 9 1013.8 1012.1 0.0
14/07:30am 27.5 25.0 8.4 30 10.5 ESE 11 13 6 7 1013.6 1011.9 0.0
14/07:00am 26.3 24.4 7.4 30 10.1 ESE 7 11 4 6 1013.2 1011.5 0.0
14/06:30am 25.0 23.4 8.1 34 9.1 ENE 6 7 3 4 1012.7 1011.0 0.0
14/06:00am 25.0 23.4 8.1 34 9.1 NNE 6 7 3 4 1012.1 1010.4 0.0
14/05:30am 26.2 23.6 7.7 31 10.0 NNE 11 13 6 7 1011.6 1009.8 0.0
14/05:00am 25.7 23.0 5.8 28 10.3 NNE 9 9 5 5 1011.2 1009.4 0.0
14/04:30am 26.3 23.6 5.8 27 10.7 ENE 9 11 5 6 1011.0 1009.2 0.0
14/04:00am 26.8 24.5 5.7 26 11.0 E 7 9 4 5 1010.7 1008.9 0.0
14/03:30am 27.6 24.8 5.2 24 11.7 ENE 9 11 5 6 1010.4 1008.6 0.0
14/03:00am 28.5 25.8 5.4 23 12.1 SE 9 15 5 8 1010.0 1008.2 0.0
14/02:30am 28.2 25.5 5.7 24 11.9 SE 9 11 5 6 1010.1 1008.3 0.0
14/02:00am 29.1 26.3 5.2 22 12.5 ENE 9 11 5 6 1010.1 1008.3 0.0
14/01:30am 29.4 26.7 5.5 22 12.6 ENE 9 13 5 7 1010.5 1008.7 0.0
14/01:00am 29.3 26.6 5.4 22 12.6 NE 9 15 5 8 1010.8 1009.0 0.0
14/12:30am 30.5 28.0 5.0 20 13.5 E 7 11 4 6 1010.7 1008.9 0.0
14/12:00am 31.1 28.2 4.8 19 13.9 E 9 13 5 7 1010.8 1009.0 0.0
 
Date/Time
CST
Temp
°C
App
Temp
°C
Dew
Point
°C
Rel
Hum
%
Delta-T
°C
Wind Press
QNH
hPa
Press
MSL
hPa
Rain since
9am
mm
Dir  Spd
km/h
Gust
km/h
Spd
kts
Gust
kts
13/11:30pm 31.2 28.7 4.9 19 13.9 E 7 9 4 5 1010.9 1009.1 0.0
13/11:00pm 32.0 29.0 3.9 17 14.7 ESE 9 15 5 8 1011.0 1009.2 0.0
13/10:30pm 33.1 30.1 3.9 16 15.3 ESE 9 13 5 7 1010.9 1009.1 0.0
13/10:00pm 33.5 30.3 3.3 15 15.7 E 9 11 5 6 1010.6 1008.8 0.0
13/09:30pm 34.4 31.2 3.1 14 16.4 E 9 13 5 7 1010.2 1008.4 0.0
13/09:00pm 34.4 31.4 2.0 13 16.6 E 7 11 4 6 1009.8 1008.0 0.0
13/08:30pm 35.4 32.4 1.7 12 17.3 E 7 7 4 4 1009.6 1007.8 0.0
13/08:00pm 35.0 31.9 1.4 12 17.1 ENE 7 9 4 5 1009.1 1007.4 0.0
13/07:30pm 36.3 33.1 -0.2 10 18.3 E 6 6 3 3 1008.7 1007.0 0.0
13/07:00pm 37.4 33.6 -0.8 9 19.1 E 9 11 5 6 1008.4 1006.7 0.0
13/06:30pm 38.7 33.9 0.2 9 19.7 ESE 15 20 8 11 1008.1 1006.4 0.0
13/06:00pm 38.9 33.7 0.3 9 19.8 ESE 17 22 9 12 1007.8 1006.1 0.0
13/05:30pm 39.7 34.4 -0.7 8 20.6 ESE 17 26 9 14 1007.7 1006.0 0.0
13/05:00pm 40.5 35.3 -0.1 8 20.9 E 17 28 9 15 1007.5 1005.7 0.0
13/04:30pm 39.3 33.8 0.6 9 20.0 E 19 30 10 16 1007.7 1006.0 0.0
13/04:00pm 40.4 35.0 1.4 9 20.5 SE 19 30 10 16 1007.9 1006.2 0.0
13/03:30pm 40.2 35.6 1.3 9 20.4 SSE 15 33 8 18 1008.3 1006.6 0.0
13/03:00pm 39.8 34.4 1.0 9 20.3 ESE 19 33 10 18 1008.6 1006.9 0.0
13/02:30pm 39.6 34.7 2.3 10 19.8 ESE 17 28 9 15 1009.1 1007.4 0.0
13/02:00pm 40.0 36.0 2.6 10 20.0 ESE 13 28 7 15 1009.5 1007.7 0.0
13/01:30pm 40.4 35.4 1.4 9 20.5 NE 17 32 9 17 1010.0 1008.2 0.0
13/01:05pm 39.6 35.4 8.1 15 18.2 SE 20 72 11 39 1010.6 1008.8 0.0
13/01:04pm 39.3 34.8 6.9 14 18.4 SE 20 72 11 39 1010.3 1008.5 0.0
13/01:03pm 39.9 35.2 5.1 12 19.3 SE 19 72 10 39 1009.4 1007.6 0.0
13/01:00pm 39.1 34.5 5.7 13 18.6 SE 19 30 10 16 1010.7 1008.9 0.0
13/12:30pm 38.8 35.5 6.5 14 18.2 NE 13 28 7 15 1011.2 1009.4 0.0
13/12:00pm 36.9 35.2 12.4 23 14.9 NW 13 20 7 11 1011.7 1009.9 0.0
13/11:30am 36.1 35.3 13.0 25 14.2 WSW 9 15 5 8 1012.1 1010.4 0.0
13/11:00am 34.7 34.9 14.6 30 12.5 NNE 7 17 4 9 1012.7 1011.0 0.0
13/10:30am 33.4 32.1 14.9 32 11.5 NW 15 20 8 11 1012.9 1011.2 0.0
13/10:00am 33.2 32.6 15.7 35 11.0 NNW 13 20 7 11 1013.1 1011.4 0.0
13/09:30am 32.3 32.1 16.6 39 10.0 NNW 13 22 7 12 1013.2 1011.5 0.0
13/09:00am 31.2 30.6 17.5 44 8.8 NW 17 24 9 13 1013.1 1011.4 0.0
13/08:30am 30.0 29.2 18.1 49 7.7 NNW 19 28 10 15 1012.8 1011.1 0.0
13/08:00am 29.2 28.0 18.3 51 7.0 NW 22 32 12 17 1012.5 1010.8 0.0
13/07:30am 28.2 27.5 18.6 56 6.2 NNW 20 28 11 15 1012.5 1010.8 0.0
13/07:00am 27.1 26.5 17.6 56 6.0 NNW 17 20 9 11 1012.5 1010.8 0.0
13/06:30am 26.2 26.0 16.7 56 5.9 NNW 13 19 7 10 1012.3 1010.6 0.0
13/06:00am 26.1 25.7 16.1 54 6.2 NNW 13 20 7 11 1012.1 1010.4 0.0
13/05:30am 26.3 25.2 15.4 51 6.7 N 15 20 8 11 1011.7 1009.9 0.0
13/05:00am 26.6 24.4 14.4 47 7.4 N 19 24 10 13 1011.1 1009.3 0.0
13/04:30am 27.1 24.6 13.4 42 8.2 N 19 26 10 14 1010.8 1009.0 0.0
13/04:00am 26.8 23.6 6.8 28 10.6 NNE 13 19 7 10 1010.7 1008.9 0.0
13/03:30am 27.7 24.4 6.5 26 11.3 NNE 13 20 7 11 1010.4 1008.6 0.0
13/03:00am 28.0 24.7 6.2 25 11.6 NE 13 19 7 10 1010.2 1008.4 0.0
13/02:30am 28.4 24.9 5.3 23 12.1 ENE 13 19 7 10 1010.3 1008.5 0.0
13/02:00am 28.3 24.9 3.9 21 12.5 N 11 17 6 9 1010.7 1008.9 0.0
13/01:30am 28.2 24.4 3.8 21 12.4 ENE 13 17 7 9 1010.7 1008.9 0.0
13/01:00am 28.0 24.9 3.7 21 12.3 ENE 9 13 5 7 1010.5 1008.7 0.0
13/12:30am 28.9 25.3 3.0 19 13.1 SSE 11 17 6 9 1010.7 1008.9 0.0
13/12:00am 28.4 27.5 5.9 24 11.9 CALM 0 0 0 0 1010.8 1009.0 0.0
 
Date/Time
CST
Temp
°C
App
Temp
°C
Dew
Point
°C
Rel
Hum
%
Delta-T
°C
Wind Press
QNH
hPa
Press
MSL
hPa
Rain since
9am
mm
Dir  Spd
km/h
Gust
km/h
Spd
kts
Gust
kts
12/11:30pm 29.2 28.1 5.3 22 12.6 CALM 0 0 0 0 1011.0 1009.2 0.0
12/11:00pm 29.0 27.8 4.5 21 12.7 CALM 0 0 0 0 1011.0 1009.2 0.0

Other formats

Comma delimited format used in spreadsheet applications
http://www.bom.gov.au/fwo/IDD60801/IDD60801.94225.axf

JavaScript Object Notation format (JSON) in row-major order
http://www.bom.gov.au/fwo/IDD60801/IDD60801.94225.json

Data quality

Most of these data are generated automatically and are frequently updated. Quality checks on data are not normally performed. It is possible for incorrect values to appear. Refer to information at About Latest Weather Observations and please check the disclaimer before using these data.